sensor_id;sensor_type;location;lat;lon;timestamp;P1;durP1;ratioP1;P2;durP2;ratioP2
22737;SDS011;11536;50.860;4.286;2023-03-01T00:01:34;13.70;;;8.50;;
22737;SDS011;11536;50.860;4.286;2023-03-01T00:03:59;14.57;;;8.55;;
22737;SDS011;11536;50.860;4.286;2023-03-01T00:06:25;13.15;;;8.10;;
22737;SDS011;11536;50.860;4.286;2023-03-01T00:08:52;14.95;;;8.63;;
22737;SDS011;11536;50.860;4.286;2023-03-01T00:13:48;12.38;;;8.43;;
22737;SDS011;11536;50.860;4.286;2023-03-01T00:16:17;13.45;;;8.90;;
22737;SDS011;11536;50.860;4.286;2023-03-01T00:18:45;14.73;;;8.40;;
22737;SDS011;11536;50.860;4.286;2023-03-01T00:21:11;13.43;;;8.52;;
22737;SDS011;11536;50.860;4.286;2023-03-01T00:23:37;15.82;;;9.38;;
22737;SDS011;11536;50.860;4.286;2023-03-01T00:26:07;12.27;;;7.95;;
22737;SDS011;11536;50.860;4.286;2023-03-01T00:28:37;15.48;;;9.02;;
22737;SDS011;11536;50.860;4.286;2023-03-01T00:31:11;14.60;;;8.98;;
22737;SDS011;11536;50.860;4.286;2023-03-01T00:33:41;14.05;;;9.05;;
22737;SDS011;11536;50.860;4.286;2023-03-01T00:36:07;12.18;;;8.60;;
22737;SDS011;11536;50.860;4.286;2023-03-01T00:38:34;12.48;;;8.40;;
22737;SDS011;11536;50.860;4.286;2023-03-01T00:41:05;13.10;;;8.75;;
22737;SDS011;11536;50.860;4.286;2023-03-01T00:43:32;14.57;;;9.07;;
22737;SDS011;11536;50.860;4.286;2023-03-01T00:46:02;14.15;;;8.80;;
22737;SDS011;11536;50.860;4.286;2023-03-01T00:48:28;16.38;;;9.20;;
22737;SDS011;11536;50.860;4.286;2023-03-01T00:50:54;15.25;;;8.98;;
22737;SDS011;11536;50.860;4.286;2023-03-01T00:53:19;15.07;;;9.23;;
22737;SDS011;11536;50.860;4.286;2023-03-01T00:55:45;14.63;;;9.20;;
22737;SDS011;11536;50.860;4.286;2023-03-01T00:58:10;17.10;;;9.13;;
22737;SDS011;11536;50.860;4.286;2023-03-01T01:00:36;14.35;;;8.90;;
22737;SDS011;11536;50.860;4.286;2023-03-01T01:03:02;13.85;;;8.55;;
22737;SDS011;11536;50.860;4.286;2023-03-01T01:05:28;14.55;;;9.10;;
22737;SDS011;11536;50.860;4.286;2023-03-01T01:07:53;14.18;;;8.25;;
22737;SDS011;11536;50.860;4.286;2023-03-01T01:10:19;16.70;;;9.93;;
22737;SDS011;11536;50.860;4.286;2023-03-01T01:12:45;14.50;;;9.00;;
22737;SDS011;11536;50.860;4.286;2023-03-01T01:15:11;13.98;;;8.43;;
22737;SDS011;11536;50.860;4.286;2023-03-01T01:17:39;15.05;;;8.30;;
22737;SDS011;11536;50.860;4.286;2023-03-01T01:20:05;13.35;;;7.78;;
22737;SDS011;11536;50.860;4.286;2023-03-01T01:22:31;14.63;;;7.93;;
22737;SDS011;11536;50.860;4.286;2023-03-01T01:24:56;15.07;;;8.13;;
22737;SDS011;11536;50.860;4.286;2023-03-01T01:27:22;13.65;;;7.95;;
22737;SDS011;11536;50.860;4.286;2023-03-01T01:29:47;12.10;;;7.47;;
22737;SDS011;11536;50.860;4.286;2023-03-01T01:32:13;11.93;;;7.05;;
22737;SDS011;11536;50.860;4.286;2023-03-01T01:34:39;13.90;;;7.70;;
22737;SDS011;11536;50.860;4.286;2023-03-01T01:37:04;12.55;;;7.28;;
22737;SDS011;11536;50.860;4.286;2023-03-01T01:39:32;15.18;;;7.85;;
22737;SDS011;11536;50.860;4.286;2023-03-01T01:41:59;11.98;;;7.50;;
22737;SDS011;11536;50.860;4.286;2023-03-01T01:44:26;13.25;;;7.18;;
22737;SDS011;11536;50.860;4.286;2023-03-01T01:47:04;12.15;;;7.50;;
22737;SDS011;11536;50.860;4.286;2023-03-01T01:49:32;12.25;;;7.65;;
22737;SDS011;11536;50.860;4.286;2023-03-01T01:52:09;13.68;;;7.85;;
22737;SDS011;11536;50.860;4.286;2023-03-01T01:54:43;13.75;;;8.02;;
22737;SDS011;11536;50.860;4.286;2023-03-01T01:57:23;14.57;;;8.57;;
22737;SDS011;11536;50.860;4.286;2023-03-01T01:59:59;13.30;;;7.97;;
22737;SDS011;11536;50.860;4.286;2023-03-01T02:02:30;11.38;;;7.22;;
22737;SDS011;11536;50.860;4.286;2023-03-01T02:05:16;13.50;;;7.65;;
22737;SDS011;11536;50.860;4.286;2023-03-01T02:07:44;12.45;;;7.93;;
22737;SDS011;11536;50.860;4.286;2023-03-01T02:10:11;11.70;;;7.07;;
22737;SDS011;11536;50.860;4.286;2023-03-01T02:12:36;11.88;;;7.53;;
22737;SDS011;11536;50.860;4.286;2023-03-01T02:15:03;13.35;;;7.38;;
22737;SDS011;11536;50.860;4.286;2023-03-01T02:17:30;13.90;;;7.78;;
22737;SDS011;11536;50.860;4.286;2023-03-01T02:20:03;16.33;;;8.60;;
22737;SDS011;11536;50.860;4.286;2023-03-01T02:22:36;14.45;;;7.88;;
22737;SDS011;11536;50.860;4.286;2023-03-01T02:30:40;13.52;;;7.43;;
22737;SDS011;11536;50.860;4.286;2023-03-01T02:33:27;11.93;;;7.50;;
22737;SDS011;11536;50.860;4.286;2023-03-01T02:35:57;13.13;;;8.20;;
22737;SDS011;11536;50.860;4.286;2023-03-01T02:38:25;13.18;;;7.82;;
22737;SDS011;11536;50.860;4.286;2023-03-01T02:40:51;13.05;;;7.97;;
22737;SDS011;11536;50.860;4.286;2023-03-01T02:43:19;12.50;;;7.70;;
22737;SDS011;11536;50.860;4.286;2023-03-01T02:45:48;12.18;;;7.40;;
22737;SDS011;11536;50.860;4.286;2023-03-01T02:48:16;13.88;;;8.20;;
22737;SDS011;11536;50.860;4.286;2023-03-01T02:53:23;16.63;;;8.05;;
22737;SDS011;11536;50.860;4.286;2023-03-01T02:56:00;12.73;;;7.95;;
22737;SDS011;11536;50.860;4.286;2023-03-01T02:58:26;12.88;;;7.82;;
22737;SDS011;11536;50.860;4.286;2023-03-01T03:00:52;13.15;;;8.55;;
22737;SDS011;11536;50.860;4.286;2023-03-01T03:03:17;13.45;;;7.88;;
22737;SDS011;11536;50.860;4.286;2023-03-01T03:05:46;12.82;;;7.63;;
22737;SDS011;11536;50.860;4.286;2023-03-01T03:08:13;12.50;;;7.85;;
22737;SDS011;11536;50.860;4.286;2023-03-01T03:10:41;14.38;;;8.68;;
22737;SDS011;11536;50.860;4.286;2023-03-01T03:13:12;12.57;;;7.90;;
22737;SDS011;11536;50.860;4.286;2023-03-01T03:15:39;13.93;;;7.75;;
22737;SDS011;11536;50.860;4.286;2023-03-01T03:18:07;13.73;;;7.63;;
22737;SDS011;11536;50.860;4.286;2023-03-01T03:20:35;13.88;;;8.07;;
22737;SDS011;11536;50.860;4.286;2023-03-01T03:23:01;14.25;;;8.27;;
22737;SDS011;11536;50.860;4.286;2023-03-01T03:25:27;13.90;;;8.38;;
22737;SDS011;11536;50.860;4.286;2023-03-01T03:27:54;13.13;;;8.00;;
22737;SDS011;11536;50.860;4.286;2023-03-01T03:30:30;13.60;;;7.95;;
22737;SDS011;11536;50.860;4.286;2023-03-01T03:32:57;13.88;;;8.20;;
22737;SDS011;11536;50.860;4.286;2023-03-01T03:35:24;15.98;;;8.02;;
22737;SDS011;11536;50.860;4.286;2023-03-01T03:37:57;14.85;;;7.50;;
22737;SDS011;11536;50.860;4.286;2023-03-01T03:40:35;12.65;;;7.82;;
22737;SDS011;11536;50.860;4.286;2023-03-01T03:43:03;14.07;;;8.48;;
22737;SDS011;11536;50.860;4.286;2023-03-01T03:45:32;13.93;;;7.95;;
22737;SDS011;11536;50.860;4.286;2023-03-01T03:47:58;15.65;;;8.48;;
22737;SDS011;11536;50.860;4.286;2023-03-01T03:50:25;14.82;;;8.98;;
22737;SDS011;11536;50.860;4.286;2023-03-01T03:52:51;15.25;;;8.13;;
22737;SDS011;11536;50.860;4.286;2023-03-01T03:55:16;13.50;;;8.43;;
22737;SDS011;11536;50.860;4.286;2023-03-01T03:57:44;16.15;;;8.30;;
22737;SDS011;11536;50.860;4.286;2023-03-01T04:00:16;15.32;;;8.55;;
22737;SDS011;11536;50.860;4.286;2023-03-01T04:02:44;15.80;;;8.32;;
22737;SDS011;11536;50.860;4.286;2023-03-01T04:05:11;14.13;;;8.85;;
22737;SDS011;11536;50.860;4.286;2023-03-01T04:07:39;14.93;;;8.10;;
22737;SDS011;11536;50.860;4.286;2023-03-01T04:10:07;15.60;;;7.93;;
22737;SDS011;11536;50.860;4.286;2023-03-01T04:12:35;13.93;;;8.40;;
22737;SDS011;11536;50.860;4.286;2023-03-01T04:15:01;15.95;;;8.85;;
22737;SDS011;11536;50.860;4.286;2023-03-01T04:17:37;15.43;;;7.93;;
22737;SDS011;11536;50.860;4.286;2023-03-01T04:20:07;11.90;;;8.40;;
22737;SDS011;11536;50.860;4.286;2023-03-01T04:22:38;14.80;;;8.10;;
22737;SDS011;11536;50.860;4.286;2023-03-01T04:25:05;14.20;;;8.45;;
22737;SDS011;11536;50.860;4.286;2023-03-01T04:27:34;12.98;;;7.90;;
22737;SDS011;11536;50.860;4.286;2023-03-01T04:30:01;13.35;;;8.00;;
22737;SDS011;11536;50.860;4.286;2023-03-01T04:32:28;14.00;;;8.93;;
22737;SDS011;11536;50.860;4.286;2023-03-01T04:34:53;14.55;;;8.52;;
22737;SDS011;11536;50.860;4.286;2023-03-01T04:37:19;12.68;;;8.25;;
22737;SDS011;11536;50.860;4.286;2023-03-01T04:39:44;15.90;;;8.25;;
22737;SDS011;11536;50.860;4.286;2023-03-01T04:42:10;13.85;;;8.30;;
22737;SDS011;11536;50.860;4.286;2023-03-01T04:44:36;17.27;;;8.63;;
22737;SDS011;11536;50.860;4.286;2023-03-01T04:47:02;11.93;;;7.72;;
22737;SDS011;11536;50.860;4.286;2023-03-01T04:49:28;14.10;;;8.27;;
22737;SDS011;11536;50.860;4.286;2023-03-01T04:51:54;13.85;;;8.35;;
22737;SDS011;11536;50.860;4.286;2023-03-01T04:54:20;15.65;;;8.82;;
22737;SDS011;11536;50.860;4.286;2023-03-01T04:56:45;14.55;;;8.10;;
22737;SDS011;11536;50.860;4.286;2023-03-01T04:59:11;13.73;;;7.90;;
22737;SDS011;11536;50.860;4.286;2023-03-01T05:01:37;16.35;;;8.38;;
22737;SDS011;11536;50.860;4.286;2023-03-01T05:04:03;16.85;;;8.07;;
22737;SDS011;11536;50.860;4.286;2023-03-01T05:06:30;14.25;;;8.07;;
22737;SDS011;11536;50.860;4.286;2023-03-01T05:08:56;17.30;;;8.50;;
22737;SDS011;11536;50.860;4.286;2023-03-01T05:11:22;14.55;;;8.30;;
22737;SDS011;11536;50.860;4.286;2023-03-01T05:13:48;12.80;;;8.10;;
22737;SDS011;11536;50.860;4.286;2023-03-01T05:16:19;17.23;;;7.82;;
22737;SDS011;11536;50.860;4.286;2023-03-01T05:18:45;11.98;;;7.30;;
22737;SDS011;11536;50.860;4.286;2023-03-01T05:21:11;13.18;;;7.72;;
22737;SDS011;11536;50.860;4.286;2023-03-01T05:23:40;12.52;;;7.22;;
22737;SDS011;11536;50.860;4.286;2023-03-01T05:26:06;18.95;;;8.35;;
22737;SDS011;11536;50.860;4.286;2023-03-01T05:28:33;14.23;;;8.15;;
22737;SDS011;11536;50.860;4.286;2023-03-01T05:30:59;14.85;;;8.27;;
22737;SDS011;11536;50.860;4.286;2023-03-01T05:33:24;14.43;;;7.93;;
22737;SDS011;11536;50.860;4.286;2023-03-01T05:35:51;15.15;;;8.52;;
22737;SDS011;11536;50.860;4.286;2023-03-01T05:38:17;15.20;;;8.70;;
22737;SDS011;11536;50.860;4.286;2023-03-01T05:40:45;13.95;;;7.95;;
22737;SDS011;11536;50.860;4.286;2023-03-01T05:43:13;13.95;;;8.65;;
22737;SDS011;11536;50.860;4.286;2023-03-01T05:45:40;14.70;;;8.35;;
22737;SDS011;11536;50.860;4.286;2023-03-01T05:48:07;15.13;;;8.23;;
22737;SDS011;11536;50.860;4.286;2023-03-01T05:50:35;14.52;;;8.02;;
22737;SDS011;11536;50.860;4.286;2023-03-01T05:53:12;13.35;;;8.40;;
22737;SDS011;11536;50.860;4.286;2023-03-01T05:55:39;29.35;;;15.38;;
22737;SDS011;11536;50.860;4.286;2023-03-01T05:58:06;13.05;;;8.07;;
22737;SDS011;11536;50.860;4.286;2023-03-01T06:00:34;14.18;;;8.35;;
22737;SDS011;11536;50.860;4.286;2023-03-01T06:02:59;13.50;;;7.85;;
22737;SDS011;11536;50.860;4.286;2023-03-01T06:05:26;13.93;;;8.77;;
22737;SDS011;11536;50.860;4.286;2023-03-01T06:07:52;13.40;;;8.23;;
22737;SDS011;11536;50.860;4.286;2023-03-01T06:10:19;14.02;;;8.05;;
22737;SDS011;11536;50.860;4.286;2023-03-01T06:12:46;12.73;;;7.93;;
22737;SDS011;11536;50.860;4.286;2023-03-01T06:15:13;15.55;;;8.50;;
22737;SDS011;11536;50.860;4.286;2023-03-01T06:17:40;12.85;;;7.63;;
22737;SDS011;11536;50.860;4.286;2023-03-01T06:20:08;16.02;;;8.63;;
22737;SDS011;11536;50.860;4.286;2023-03-01T06:22:35;15.77;;;8.13;;
22737;SDS011;11536;50.860;4.286;2023-03-01T06:25:01;14.80;;;8.15;;
22737;SDS011;11536;50.860;4.286;2023-03-01T06:27:27;13.48;;;7.68;;
22737;SDS011;11536;50.860;4.286;2023-03-01T06:29:53;14.20;;;8.05;;
22737;SDS011;11536;50.860;4.286;2023-03-01T06:32:19;13.85;;;8.30;;
22737;SDS011;11536;50.860;4.286;2023-03-01T06:34:47;14.15;;;8.40;;
22737;SDS011;11536;50.860;4.286;2023-03-01T06:37:14;16.95;;;8.30;;
22737;SDS011;11536;50.860;4.286;2023-03-01T06:39:40;15.90;;;8.38;;
22737;SDS011;11536;50.860;4.286;2023-03-01T06:42:06;14.00;;;8.27;;
22737;SDS011;11536;50.860;4.286;2023-03-01T06:44:32;15.90;;;8.45;;
22737;SDS011;11536;50.860;4.286;2023-03-01T06:46:58;14.20;;;8.10;;
22737;SDS011;11536;50.860;4.286;2023-03-01T06:49:24;14.52;;;8.60;;
22737;SDS011;11536;50.860;4.286;2023-03-01T06:51:49;17.83;;;8.82;;
22737;SDS011;11536;50.860;4.286;2023-03-01T06:54:15;15.10;;;8.60;;
22737;SDS011;11536;50.860;4.286;2023-03-01T06:56:42;15.23;;;7.93;;
22737;SDS011;11536;50.860;4.286;2023-03-01T06:59:11;18.50;;;8.63;;
22737;SDS011;11536;50.860;4.286;2023-03-01T07:01:36;16.70;;;8.80;;
22737;SDS011;11536;50.860;4.286;2023-03-01T07:04:03;12.85;;;7.95;;
22737;SDS011;11536;50.860;4.286;2023-03-01T07:06:29;14.18;;;8.00;;
22737;SDS011;11536;50.860;4.286;2023-03-01T07:08:55;16.98;;;8.85;;
22737;SDS011;11536;50.860;4.286;2023-03-01T07:11:20;15.88;;;9.27;;
22737;SDS011;11536;50.860;4.286;2023-03-01T07:13:47;19.75;;;9.10;;
22737;SDS011;11536;50.860;4.286;2023-03-01T07:16:13;16.17;;;8.32;;
22737;SDS011;11536;50.860;4.286;2023-03-01T07:18:39;23.40;;;9.13;;
22737;SDS011;11536;50.860;4.286;2023-03-01T07:21:06;20.88;;;8.93;;
22737;SDS011;11536;50.860;4.286;2023-03-01T07:23:33;16.42;;;8.88;;
22737;SDS011;11536;50.860;4.286;2023-03-01T07:25:59;18.25;;;9.32;;
22737;SDS011;11536;50.860;4.286;2023-03-01T07:28:25;15.30;;;7.97;;
22737;SDS011;11536;50.860;4.286;2023-03-01T07:30:51;14.77;;;8.80;;
22737;SDS011;11536;50.860;4.286;2023-03-01T07:33:17;18.42;;;8.85;;
22737;SDS011;11536;50.860;4.286;2023-03-01T07:35:42;15.85;;;8.77;;
22737;SDS011;11536;50.860;4.286;2023-03-01T07:38:08;14.90;;;9.23;;
22737;SDS011;11536;50.860;4.286;2023-03-01T07:40:34;17.92;;;9.50;;
22737;SDS011;11536;50.860;4.286;2023-03-01T07:43:00;16.45;;;9.15;;
22737;SDS011;11536;50.860;4.286;2023-03-01T07:45:26;15.23;;;8.95;;
22737;SDS011;11536;50.860;4.286;2023-03-01T07:47:53;16.58;;;8.85;;
22737;SDS011;11536;50.860;4.286;2023-03-01T07:50:19;16.33;;;9.30;;
22737;SDS011;11536;50.860;4.286;2023-03-01T07:52:45;17.85;;;8.77;;
22737;SDS011;11536;50.860;4.286;2023-03-01T07:55:13;17.35;;;9.18;;
22737;SDS011;11536;50.860;4.286;2023-03-01T07:57:39;21.48;;;9.88;;
22737;SDS011;11536;50.860;4.286;2023-03-01T08:00:05;17.30;;;9.00;;
22737;SDS011;11536;50.860;4.286;2023-03-01T08:02:32;17.50;;;9.07;;
22737;SDS011;11536;50.860;4.286;2023-03-01T08:04:57;17.15;;;9.75;;
22737;SDS011;11536;50.860;4.286;2023-03-01T08:07:23;17.10;;;9.23;;
22737;SDS011;11536;50.860;4.286;2023-03-01T08:09:48;15.45;;;9.88;;
22737;SDS011;11536;50.860;4.286;2023-03-01T08:12:14;18.73;;;10.10;;
22737;SDS011;11536;50.860;4.286;2023-03-01T08:14:41;21.33;;;9.38;;
22737;SDS011;11536;50.860;4.286;2023-03-01T08:17:07;19.88;;;9.95;;
22737;SDS011;11536;50.860;4.286;2023-03-01T08:19:33;15.63;;;9.45;;
22737;SDS011;11536;50.860;4.286;2023-03-01T08:21:59;15.98;;;9.13;;
22737;SDS011;11536;50.860;4.286;2023-03-01T08:24:27;18.35;;;9.63;;
22737;SDS011;11536;50.860;4.286;2023-03-01T08:26:53;14.80;;;9.43;;
22737;SDS011;11536;50.860;4.286;2023-03-01T08:29:19;18.50;;;9.95;;
22737;SDS011;11536;50.860;4.286;2023-03-01T08:31:45;18.40;;;9.43;;
22737;SDS011;11536;50.860;4.286;2023-03-01T08:34:12;17.60;;;9.90;;
22737;SDS011;11536;50.860;4.286;2023-03-01T08:36:40;18.67;;;9.65;;
22737;SDS011;11536;50.860;4.286;2023-03-01T08:39:07;16.88;;;9.75;;
22737;SDS011;11536;50.860;4.286;2023-03-01T08:41:34;15.13;;;9.32;;
22737;SDS011;11536;50.860;4.286;2023-03-01T08:44:00;17.48;;;9.20;;
22737;SDS011;11536;50.860;4.286;2023-03-01T08:46:29;17.55;;;9.35;;
22737;SDS011;11536;50.860;4.286;2023-03-01T08:48:57;19.48;;;9.65;;
22737;SDS011;11536;50.860;4.286;2023-03-01T08:51:23;16.10;;;9.02;;
22737;SDS011;11536;50.860;4.286;2023-03-01T08:53:50;19.20;;;8.95;;
22737;SDS011;11536;50.860;4.286;2023-03-01T08:56:16;20.52;;;8.98;;
22737;SDS011;11536;50.860;4.286;2023-03-01T08:58:44;17.00;;;9.50;;
22737;SDS011;11536;50.860;4.286;2023-03-01T09:01:11;18.60;;;9.73;;
22737;SDS011;11536;50.860;4.286;2023-03-01T09:03:37;16.52;;;9.25;;
22737;SDS011;11536;50.860;4.286;2023-03-01T09:06:04;20.67;;;10.38;;
22737;SDS011;11536;50.860;4.286;2023-03-01T09:08:34;16.38;;;10.00;;
22737;SDS011;11536;50.860;4.286;2023-03-01T09:11:01;20.17;;;9.80;;
22737;SDS011;11536;50.860;4.286;2023-03-01T09:13:28;19.63;;;10.50;;
22737;SDS011;11536;50.860;4.286;2023-03-01T09:15:56;21.30;;;10.20;;
22737;SDS011;11536;50.860;4.286;2023-03-01T09:18:26;17.92;;;9.75;;
22737;SDS011;11536;50.860;4.286;2023-03-01T09:20:51;17.13;;;9.07;;
22737;SDS011;11536;50.860;4.286;2023-03-01T09:23:21;16.98;;;9.50;;
22737;SDS011;11536;50.860;4.286;2023-03-01T09:25:46;15.05;;;9.05;;
22737;SDS011;11536;50.860;4.286;2023-03-01T09:28:12;19.63;;;9.93;;
22737;SDS011;11536;50.860;4.286;2023-03-01T09:30:38;17.05;;;10.13;;
22737;SDS011;11536;50.860;4.286;2023-03-01T09:33:03;21.52;;;10.85;;
22737;SDS011;11536;50.860;4.286;2023-03-01T09:35:29;19.15;;;10.18;;
22737;SDS011;11536;50.860;4.286;2023-03-01T09:37:55;19.98;;;10.45;;
22737;SDS011;11536;50.860;4.286;2023-03-01T09:40:21;15.63;;;10.25;;
22737;SDS011;11536;50.860;4.286;2023-03-01T09:46:05;19.63;;;10.18;;
22737;SDS011;11536;50.860;4.286;2023-03-01T09:48:39;16.95;;;9.90;;
22737;SDS011;11536;50.860;4.286;2023-03-01T09:51:13;16.90;;;10.25;;
22737;SDS011;11536;50.860;4.286;2023-03-01T09:53:44;20.35;;;10.75;;
22737;SDS011;11536;50.860;4.286;2023-03-01T09:56:17;19.08;;;10.27;;
22737;SDS011;11536;50.860;4.286;2023-03-01T09:58:59;18.00;;;9.55;;
22737;SDS011;11536;50.860;4.286;2023-03-01T10:01:30;17.45;;;10.50;;
22737;SDS011;11536;50.860;4.286;2023-03-01T10:04:20;19.80;;;10.80;;
22737;SDS011;11536;50.860;4.286;2023-03-01T10:06:58;17.23;;;9.07;;
22737;SDS011;11536;50.860;4.286;2023-03-01T10:09:40;20.25;;;10.70;;
22737;SDS011;11536;50.860;4.286;2023-03-01T10:12:12;18.75;;;10.65;;
22737;SDS011;11536;50.860;4.286;2023-03-01T10:17:27;15.90;;;9.68;;
22737;SDS011;11536;50.860;4.286;2023-03-01T10:22:38;18.33;;;9.98;;
22737;SDS011;11536;50.860;4.286;2023-03-01T10:25:03;19.02;;;10.00;;
22737;SDS011;11536;50.860;4.286;2023-03-01T10:27:34;16.08;;;9.65;;
22737;SDS011;11536;50.860;4.286;2023-03-01T10:32:41;19.90;;;10.13;;
22737;SDS011;11536;50.860;4.286;2023-03-01T10:35:15;16.92;;;10.07;;
22737;SDS011;11536;50.860;4.286;2023-03-01T10:37:56;16.45;;;10.05;;
22737;SDS011;11536;50.860;4.286;2023-03-01T10:40:23;16.77;;;9.50;;
22737;SDS011;11536;50.860;4.286;2023-03-01T10:42:48;19.25;;;10.73;;
22737;SDS011;11536;50.860;4.286;2023-03-01T10:45:16;16.35;;;9.75;;
22737;SDS011;11536;50.860;4.286;2023-03-01T10:50:49;16.85;;;10.25;;
22737;SDS011;11536;50.860;4.286;2023-03-01T10:53:40;20.08;;;9.30;;
22737;SDS011;11536;50.860;4.286;2023-03-01T10:56:11;17.30;;;10.10;;
22737;SDS011;11536;50.860;4.286;2023-03-01T10:58:39;16.33;;;9.40;;
22737;SDS011;11536;50.860;4.286;2023-03-01T11:03:40;16.27;;;9.38;;
22737;SDS011;11536;50.860;4.286;2023-03-01T11:08:41;17.85;;;10.10;;
22737;SDS011;11536;50.860;4.286;2023-03-01T11:13:53;14.32;;;9.25;;
22737;SDS011;11536;50.860;4.286;2023-03-01T11:16:34;15.75;;;8.70;;
22737;SDS011;11536;50.860;4.286;2023-03-01T11:19:21;17.50;;;9.77;;
22737;SDS011;11536;50.860;4.286;2023-03-01T11:27:12;16.10;;;9.70;;
22737;SDS011;11536;50.860;4.286;2023-03-01T11:29:56;18.23;;;8.77;;
22737;SDS011;11536;50.860;4.286;2023-03-01T11:33:33;16.23;;;8.40;;
22737;SDS011;11536;50.860;4.286;2023-03-01T11:35:34;16.73;;;9.02;;
22737;SDS011;11536;50.860;4.286;2023-03-01T11:48:51;14.48;;;8.80;;
22737;SDS011;11536;50.860;4.286;2023-03-01T11:56:55;15.15;;;8.77;;
22737;SDS011;11536;50.860;4.286;2023-03-01T12:02:43;14.35;;;9.20;;
22737;SDS011;11536;50.860;4.286;2023-03-01T12:08:36;14.82;;;8.73;;
22737;SDS011;11536;50.860;4.286;2023-03-01T12:19:15;14.40;;;8.57;;
22737;SDS011;11536;50.860;4.286;2023-03-01T12:35:14;15.75;;;8.73;;
22737;SDS011;11536;50.860;4.286;2023-03-01T12:38:52;15.80;;;8.60;;
22737;SDS011;11536;50.860;4.286;2023-03-01T12:46:10;13.50;;;8.80;;
22737;SDS011;11536;50.860;4.286;2023-03-01T12:51:29;14.50;;;8.15;;
22737;SDS011;11536;50.860;4.286;2023-03-01T12:53:58;15.73;;;8.27;;
22737;SDS011;11536;50.860;4.286;2023-03-01T12:56:28;13.95;;;8.57;;
22737;SDS011;11536;50.860;4.286;2023-03-01T12:59:02;14.38;;;8.43;;
22737;SDS011;11536;50.860;4.286;2023-03-01T13:01:58;14.43;;;8.77;;
22737;SDS011;11536;50.860;4.286;2023-03-01T13:04:51;13.57;;;8.50;;
22737;SDS011;11536;50.860;4.286;2023-03-01T13:07:41;13.25;;;7.72;;
22737;SDS011;11536;50.860;4.286;2023-03-01T13:10:23;13.35;;;8.10;;
22737;SDS011;11536;50.860;4.286;2023-03-01T13:17:58;12.63;;;7.75;;
22737;SDS011;11536;50.860;4.286;2023-03-01T13:33:55;14.50;;;8.20;;
22737;SDS011;11536;50.860;4.286;2023-03-01T13:46:38;14.48;;;8.77;;
22737;SDS011;11536;50.860;4.286;2023-03-01T13:49:04;13.88;;;8.68;;
22737;SDS011;11536;50.860;4.286;2023-03-01T13:51:30;15.25;;;8.63;;
22737;SDS011;11536;50.860;4.286;2023-03-01T13:53:56;15.93;;;8.77;;
22737;SDS011;11536;50.860;4.286;2023-03-01T13:56:24;15.02;;;8.82;;
22737;SDS011;11536;50.860;4.286;2023-03-01T14:01:21;13.82;;;9.15;;
22737;SDS011;11536;50.860;4.286;2023-03-01T14:03:52;14.95;;;8.30;;
22737;SDS011;11536;50.860;4.286;2023-03-01T14:06:20;16.80;;;8.70;;
22737;SDS011;11536;50.860;4.286;2023-03-01T14:09:10;12.43;;;8.02;;
22737;SDS011;11536;50.860;4.286;2023-03-01T14:11:53;13.65;;;8.45;;
22737;SDS011;11536;50.860;4.286;2023-03-01T14:20:11;13.85;;;7.97;;
22737;SDS011;11536;50.860;4.286;2023-03-01T14:22:49;15.77;;;8.32;;
22737;SDS011;11536;50.860;4.286;2023-03-01T14:25:20;14.10;;;8.68;;
22737;SDS011;11536;50.860;4.286;2023-03-01T14:32:57;14.50;;;8.48;;
22737;SDS011;11536;50.860;4.286;2023-03-01T14:35:25;12.45;;;8.23;;
22737;SDS011;11536;50.860;4.286;2023-03-01T14:37:53;16.63;;;8.32;;
22737;SDS011;11536;50.860;4.286;2023-03-01T14:40:29;15.77;;;8.52;;
22737;SDS011;11536;50.860;4.286;2023-03-01T14:42:58;14.15;;;8.23;;
22737;SDS011;11536;50.860;4.286;2023-03-01T14:45:27;11.95;;;8.23;;
22737;SDS011;11536;50.860;4.286;2023-03-01T14:47:55;13.93;;;8.38;;
22737;SDS011;11536;50.860;4.286;2023-03-01T14:50:27;15.18;;;8.13;;
22737;SDS011;11536;50.860;4.286;2023-03-01T14:52:56;12.60;;;8.20;;
22737;SDS011;11536;50.860;4.286;2023-03-01T14:58:09;14.38;;;8.75;;
22737;SDS011;11536;50.860;4.286;2023-03-01T15:00:38;14.32;;;8.43;;
22737;SDS011;11536;50.860;4.286;2023-03-01T15:03:14;15.15;;;9.02;;
22737;SDS011;11536;50.860;4.286;2023-03-01T15:06:03;14.93;;;9.27;;
22737;SDS011;11536;50.860;4.286;2023-03-01T15:08:30;13.75;;;8.30;;
22737;SDS011;11536;50.860;4.286;2023-03-01T15:11:04;13.93;;;8.93;;
22737;SDS011;11536;50.860;4.286;2023-03-01T15:13:42;15.63;;;8.95;;
22737;SDS011;11536;50.860;4.286;2023-03-01T15:16:17;14.73;;;9.05;;
22737;SDS011;11536;50.860;4.286;2023-03-01T15:19:05;17.02;;;9.70;;
22737;SDS011;11536;50.860;4.286;2023-03-01T15:21:36;13.75;;;8.48;;
22737;SDS011;11536;50.860;4.286;2023-03-01T15:24:08;14.80;;;8.65;;
22737;SDS011;11536;50.860;4.286;2023-03-01T15:29:23;16.10;;;8.73;;
22737;SDS011;11536;50.860;4.286;2023-03-01T15:31:56;13.85;;;8.40;;
22737;SDS011;11536;50.860;4.286;2023-03-01T15:34:32;15.25;;;9.02;;
22737;SDS011;11536;50.860;4.286;2023-03-01T15:37:00;15.85;;;8.48;;
22737;SDS011;11536;50.860;4.286;2023-03-01T15:39:35;16.35;;;9.75;;
22737;SDS011;11536;50.860;4.286;2023-03-01T15:47:49;16.80;;;8.95;;
22737;SDS011;11536;50.860;4.286;2023-03-01T15:52:58;14.25;;;8.80;;
22737;SDS011;11536;50.860;4.286;2023-03-01T15:55:26;15.85;;;9.48;;
22737;SDS011;11536;50.860;4.286;2023-03-01T15:58:05;13.32;;;8.82;;
22737;SDS011;11536;50.860;4.286;2023-03-01T16:00:37;14.27;;;9.02;;
22737;SDS011;11536;50.860;4.286;2023-03-01T16:03:03;16.08;;;9.57;;
22737;SDS011;11536;50.860;4.286;2023-03-01T16:05:31;15.07;;;9.98;;
22737;SDS011;11536;50.860;4.286;2023-03-01T16:07:59;15.20;;;9.88;;
22737;SDS011;11536;50.860;4.286;2023-03-01T16:10:25;16.67;;;9.38;;
22737;SDS011;11536;50.860;4.286;2023-03-01T16:12:52;14.80;;;9.52;;
22737;SDS011;11536;50.860;4.286;2023-03-01T16:15:22;17.20;;;9.25;;
22737;SDS011;11536;50.860;4.286;2023-03-01T16:17:53;14.57;;;9.23;;
22737;SDS011;11536;50.860;4.286;2023-03-01T16:20:19;17.08;;;9.40;;
22737;SDS011;11536;50.860;4.286;2023-03-01T16:22:45;17.05;;;9.23;;
22737;SDS011;11536;50.860;4.286;2023-03-01T16:25:15;14.73;;;9.10;;
22737;SDS011;11536;50.860;4.286;2023-03-01T16:27:43;16.40;;;9.07;;
22737;SDS011;11536;50.860;4.286;2023-03-01T16:30:10;15.40;;;8.10;;
22737;SDS011;11536;50.860;4.286;2023-03-01T16:32:37;15.10;;;8.85;;
22737;SDS011;11536;50.860;4.286;2023-03-01T16:35:04;13.80;;;7.97;;
22737;SDS011;11536;50.860;4.286;2023-03-01T16:37:32;16.60;;;8.70;;
22737;SDS011;11536;50.860;4.286;2023-03-01T16:39:58;15.52;;;8.60;;
22737;SDS011;11536;50.860;4.286;2023-03-01T16:42:24;15.88;;;8.75;;
22737;SDS011;11536;50.860;4.286;2023-03-01T16:44:56;14.45;;;8.80;;
22737;SDS011;11536;50.860;4.286;2023-03-01T16:47:22;13.65;;;8.27;;
22737;SDS011;11536;50.860;4.286;2023-03-01T16:49:51;11.43;;;7.53;;
22737;SDS011;11536;50.860;4.286;2023-03-01T16:52:18;13.90;;;7.82;;
22737;SDS011;11536;50.860;4.286;2023-03-01T16:54:44;14.85;;;8.23;;
22737;SDS011;11536;50.860;4.286;2023-03-01T16:57:10;15.82;;;8.43;;
22737;SDS011;11536;50.860;4.286;2023-03-01T16:59:36;14.10;;;7.90;;
22737;SDS011;11536;50.860;4.286;2023-03-01T17:02:02;17.35;;;7.72;;
22737;SDS011;11536;50.860;4.286;2023-03-01T17:04:28;13.57;;;7.45;;
22737;SDS011;11536;50.860;4.286;2023-03-01T17:06:54;15.13;;;8.45;;
22737;SDS011;11536;50.860;4.286;2023-03-01T17:09:19;14.82;;;8.13;;
22737;SDS011;11536;50.860;4.286;2023-03-01T17:11:47;12.70;;;8.18;;